Time;durP1;ratioP1;P1;durP2;ratioP2;P2;SDS_P1;SDS_P2;PMS_P1;PMS_P2;Temp;Humidity;BMP_temperature;BMP_pressure;BME280_temperature;BME280_humidity;BME280_pressure;Samples;Min_cycle;Max_cycle;Signal;HPM_P1;HPM_P2
2023/11/22 00:01:56;0.00;0.00;0.62;0.00;0.00;0.62;2.60;2.10;;;21.90;28.40;;;;;;2255818;61;20425;-60
2023/11/22 00:04:41;0.00;0.00;0.62;0.00;0.00;0.62;2.90;2.13;;;21.80;28.40;;;;;;2256355;61;20366;-60
2023/11/22 00:07:28;0.00;0.00;0.62;0.00;0.00;0.62;2.53;1.70;;;21.90;28.40;;;;;;2256540;61;20421;-56
2023/11/22 00:10:13;0.00;0.00;0.62;0.00;0.00;0.62;2.40;1.90;;;21.80;28.30;;;;;;2256158;61;20386;-62
2023/11/22 00:12:58;0.00;0.00;0.62;0.00;0.00;0.62;2.93;2.13;;;21.80;28.30;;;;;;2255810;61;20877;-59
2023/11/22 00:15:43;0.00;0.00;0.62;0.00;0.00;0.62;2.97;2.23;;;21.80;28.40;;;;;;2256517;61;20760;-60
2023/11/22 00:18:30;0.00;0.00;0.62;0.00;0.00;0.62;2.87;2.10;;;21.80;28.30;;;;;;2256352;61;20362;-60
2023/11/22 00:21:15;0.00;0.00;0.62;0.00;0.00;0.62;2.10;1.80;;;21.80;28.40;;;;;;2255741;61;20425;-61
2023/11/22 00:23:59;0.00;0.00;0.62;0.00;0.00;0.62;2.50;1.93;;;21.80;28.30;;;;;;2256400;61;20409;-58
2023/11/22 00:26:44;0.00;0.00;0.62;0.00;0.00;0.62;2.97;2.00;;;21.80;28.30;;;;;;2256353;61;20772;-61
2023/11/22 00:29:28;0.00;0.00;0.62;0.00;0.00;0.62;2.70;2.10;;;21.90;28.40;;;;;;2256984;61;20446;-61
2023/11/22 00:32:13;0.00;0.00;0.62;0.00;0.00;0.62;3.20;2.20;;;21.80;28.30;;;;;;2256744;61;20358;-60
2023/11/22 00:34:59;0.00;0.00;0.62;0.00;0.00;0.62;2.60;1.87;;;21.80;28.40;;;;;;2256627;61;20405;-61
2023/11/22 00:37:43;0.00;0.00;0.62;0.00;0.00;0.62;3.93;2.30;;;21.80;28.90;;;;;;2256503;61;20370;-59
2023/11/22 00:40:28;0.00;0.00;0.62;0.00;0.00;0.62;2.30;1.53;;;21.80;28.30;;;;;;2256889;61;20470;-58
2023/11/22 00:43:12;0.00;0.00;0.62;0.00;0.00;0.62;2.23;1.80;;;21.80;28.40;;;;;;2255822;61;21007;-60
2023/11/22 00:45:57;0.00;0.00;0.62;0.00;0.00;0.62;2.17;1.67;;;21.80;28.30;;;;;;2256874;61;20366;-57
2023/11/22 00:48:43;0.00;0.00;0.62;0.00;0.00;0.62;2.70;2.00;;;21.70;28.30;;;;;;2256825;61;20445;-58
2023/11/22 00:51:31;0.00;0.00;0.62;0.00;0.00;0.62;2.43;1.83;;;21.70;28.30;;;;;;2256628;61;20789;-58
2023/11/22 00:54:16;0.00;0.00;0.62;0.00;0.00;0.62;2.17;1.70;;;21.80;28.30;;;;;;2256410;61;20369;-61
2023/11/22 00:57:01;0.00;0.00;0.62;0.00;0.00;0.62;2.60;2.10;;;21.70;28.30;;;;;;2256586;61;20853;-58
2023/11/22 00:59:46;0.00;0.00;0.62;0.00;0.00;0.62;2.37;1.93;;;21.70;28.30;;;;;;2256857;61;20834;-58
2023/11/22 01:02:30;0.00;0.00;0.62;0.00;0.00;0.62;2.43;2.07;;;21.70;28.30;;;;;;2256459;61;20366;-58
2023/11/22 01:05:15;0.00;0.00;0.62;0.00;0.00;0.62;2.10;1.60;;;21.70;28.30;;;;;;2256063;61;20605;-61
2023/11/22 01:08:02;0.00;0.00;0.62;0.00;0.00;0.62;2.53;1.80;;;21.70;28.30;;;;;;2256210;61;20366;-57
2023/11/22 01:10:47;0.00;0.00;0.62;0.00;0.00;0.62;2.43;2.00;;;21.70;28.30;;;;;;2256383;61;20846;-58
2023/11/22 01:13:32;0.00;0.00;0.62;0.00;0.00;0.62;2.10;1.60;;;21.70;28.30;;;;;;2255917;61;20432;-59
2023/11/22 01:16:17;0.00;0.00;0.62;0.00;0.00;0.62;2.60;1.80;;;21.70;28.80;;;;;;2256700;61;20424;-60
2023/11/22 01:19:02;0.00;0.00;0.62;0.00;0.00;0.62;3.57;2.10;;;21.70;28.30;;;;;;2256450;61;20385;-56
2023/11/22 01:21:47;0.00;0.00;0.62;0.00;0.00;0.62;2.23;1.73;;;21.70;28.30;;;;;;2256391;61;21027;-61
2023/11/22 01:24:33;0.00;0.00;0.62;0.00;0.00;0.62;2.67;2.00;;;21.70;28.80;;;;;;2256178;61;20357;-64
2023/11/22 01:27:17;0.00;0.00;0.62;0.00;0.00;0.62;2.30;1.57;;;21.70;28.30;;;;;;2256467;61;20405;-57
2023/11/22 01:30:03;0.00;0.00;0.62;0.00;0.00;0.62;2.27;1.87;;;21.70;28.30;;;;;;2256963;61;20409;-61
2023/11/22 01:32:49;0.00;0.00;0.62;0.00;0.00;0.62;2.10;1.57;;;21.70;28.30;;;;;;2255725;61;20923;-58
2023/11/22 01:35:33;0.00;0.00;0.62;0.00;0.00;0.62;2.00;1.37;;;21.70;28.30;;;;;;2256505;61;20366;-62
2023/11/22 01:38:18;0.00;0.00;0.62;0.00;0.00;0.62;2.47;2.00;;;21.70;28.30;;;;;;2256673;61;20454;-57
2023/11/22 01:41:04;0.00;0.00;0.62;0.00;0.00;0.62;2.10;1.60;;;21.70;28.30;;;;;;2256108;61;20381;-58
2023/11/22 01:43:50;0.00;0.00;0.62;0.00;0.00;0.62;3.00;1.70;;;21.70;28.30;;;;;;2256159;61;20369;-56
2023/11/22 01:46:35;0.00;0.00;0.62;0.00;0.00;0.62;2.63;1.80;;;21.70;28.20;;;;;;2256763;61;20369;-59
2023/11/22 01:49:20;0.00;0.00;0.62;0.00;0.00;0.62;2.73;1.60;;;21.70;28.20;;;;;;2256383;61;20362;-59
2023/11/22 01:52:05;0.00;0.00;0.62;0.00;0.00;0.62;2.17;1.77;;;21.70;28.20;;;;;;2256415;61;20361;-55
2023/11/22 01:54:50;0.00;0.00;0.62;0.00;0.00;0.62;2.63;1.67;;;21.70;28.20;;;;;;2256254;61;20950;-59
2023/11/22 01:57:36;0.00;0.00;0.62;0.00;0.00;0.62;2.10;1.50;;;21.70;28.20;;;;;;2256040;61;20716;-58
2023/11/22 02:00:22;0.00;0.00;0.62;0.00;0.00;0.62;2.50;1.83;;;21.70;28.20;;;;;;2256603;61;20436;-57
2023/11/22 02:03:08;0.00;0.00;0.62;0.00;0.00;0.62;2.60;1.80;;;21.70;28.10;;;;;;2256342;61;20413;-59
2023/11/22 02:05:54;0.00;0.00;0.62;0.00;0.00;0.62;2.90;1.67;;;21.70;28.70;;;;;;2256322;61;20773;-59
2023/11/22 02:08:38;0.00;0.00;0.62;0.00;0.00;0.62;2.10;1.60;;;21.70;28.10;;;;;;2256335;61;20365;-58
2023/11/22 02:11:24;0.00;0.00;0.62;0.00;0.00;0.62;2.40;1.87;;;21.70;28.10;;;;;;2256384;61;20778;-63
2023/11/22 02:14:10;0.00;0.00;0.62;0.00;0.00;0.62;2.00;1.63;;;21.70;28.10;;;;;;2257029;61;20416;-59
2023/11/22 02:16:54;0.00;0.00;0.62;0.00;0.00;0.62;1.90;1.50;;;21.70;28.10;;;;;;2251634;61;20378;-61
2023/11/22 02:19:39;0.00;0.00;0.62;0.00;0.00;0.62;1.67;1.10;;;21.70;28.00;;;;;;2254018;61;20459;-60
2023/11/22 02:22:23;0.00;0.00;0.62;0.00;0.00;0.62;2.20;1.53;;;21.70;28.00;;;;;;2256289;61;20440;-60
2023/11/22 02:25:09;0.00;0.00;0.62;0.00;0.00;0.62;2.40;1.83;;;21.70;28.00;;;;;;2257008;61;20837;-60
2023/11/22 02:27:54;0.00;0.00;0.62;0.00;0.00;0.62;2.23;1.70;;;21.70;28.00;;;;;;2256754;61;20412;-61
2023/11/22 02:30:39;0.00;0.00;0.62;0.00;0.00;0.62;2.83;1.73;;;21.70;28.00;;;;;;2256523;61;20653;-60
2023/11/22 02:33:24;0.00;0.00;0.62;0.00;0.00;0.62;2.20;1.50;;;21.70;28.00;;;;;;2255795;61;20366;-59
2023/11/22 02:36:12;0.00;0.00;0.62;0.00;0.00;0.62;2.73;1.53;;;21.70;28.00;;;;;;2256617;61;20365;-58
2023/11/22 02:38:57;0.00;0.00;0.62;0.00;0.00;0.62;2.30;1.80;;;21.70;28.00;;;;;;2256286;61;20584;-61
2023/11/22 02:41:43;0.00;0.00;0.62;0.00;0.00;0.62;2.00;1.43;;;21.60;27.90;;;;;;2255829;61;20440;-59
2023/11/22 02:44:27;0.00;0.00;0.62;0.00;0.00;0.62;1.97;1.47;;;21.70;28.00;;;;;;2256356;61;20796;-60
2023/11/22 02:47:12;0.00;0.00;0.62;0.00;0.00;0.62;2.60;1.60;;;21.70;28.00;;;;;;2256679;61;20431;-61
2023/11/22 02:49:56;0.00;0.00;0.62;0.00;0.00;0.62;2.50;1.70;;;21.60;27.90;;;;;;2255766;61;20391;-58
2023/11/22 02:52:41;0.00;0.00;0.62;0.00;0.00;0.62;2.00;1.37;;;21.70;28.00;;;;;;2256034;61;20461;-57
2023/11/22 02:55:26;0.00;0.00;0.62;0.00;0.00;0.62;2.20;1.50;;;21.70;27.90;;;;;;2255698;61;20362;-60
2023/11/22 02:58:12;0.00;0.00;0.62;0.00;0.00;0.62;2.20;1.50;;;21.70;28.00;;;;;;2256051;61;20390;-55
2023/11/22 03:00:57;0.00;0.00;0.62;0.00;0.00;0.62;2.50;2.00;;;21.60;27.90;;;;;;2256262;61;20401;-60
2023/11/22 03:03:42;0.00;0.00;0.62;0.00;0.00;0.62;1.87;1.50;;;21.60;27.90;;;;;;2255341;61;20381;-59
2023/11/22 03:06:28;0.00;0.00;0.62;0.00;0.00;0.62;3.20;1.70;;;21.60;27.90;;;;;;2256248;61;20452;-58
2023/11/22 03:09:13;0.00;0.00;0.62;0.00;0.00;0.62;3.30;1.60;;;21.60;27.90;;;;;;2256556;61;20377;-60
2023/11/22 03:11:58;0.00;0.00;0.62;0.00;0.00;0.62;2.37;1.30;;;21.60;27.90;;;;;;2255344;61;20429;-58
2023/11/22 03:14:44;0.00;0.00;0.62;0.00;0.00;0.62;2.57;1.57;;;21.60;27.90;;;;;;2256476;61;20441;-58
2023/11/22 03:17:29;0.00;0.00;0.62;0.00;0.00;0.62;2.00;1.20;;;21.60;27.90;;;;;;2256185;61;20838;-61
2023/11/22 03:20:16;0.00;0.00;0.62;0.00;0.00;0.62;2.73;1.70;;;21.60;27.90;;;;;;2256175;61;20425;-58
2023/11/22 03:23:00;0.00;0.00;0.62;0.00;0.00;0.62;2.20;1.57;;;21.60;27.90;;;;;;2256232;61;20362;-60
2023/11/22 03:25:48;0.00;0.00;0.62;0.00;0.00;0.62;1.90;1.37;;;21.60;28.00;;;;;;2256272;61;20830;-59
2023/11/22 03:28:33;0.00;0.00;0.62;0.00;0.00;0.62;2.10;1.40;;;21.50;27.90;;;;;;2255972;61;20365;-59
2023/11/22 03:31:19;0.00;0.00;0.62;0.00;0.00;0.62;1.90;1.30;;;21.50;27.90;;;;;;2256028;61;20480;-57
2023/11/22 03:34:05;0.00;0.00;0.62;0.00;0.00;0.62;2.30;1.70;;;21.50;27.90;;;;;;2256289;61;20992;-57
2023/11/22 03:36:49;0.00;0.00;0.62;0.00;0.00;0.62;1.93;1.27;;;21.50;27.90;;;;;;2256021;61;20366;-56
2023/11/22 03:39:34;0.00;0.00;0.62;0.00;0.00;0.62;1.93;1.47;;;21.50;27.90;;;;;;2255979;61;20404;-60
2023/11/22 03:42:19;0.00;0.00;0.62;0.00;0.00;0.62;1.57;1.17;;;21.50;27.90;;;;;;2255962;61;20461;-56
2023/11/22 03:45:05;0.00;0.00;0.62;0.00;0.00;0.62;1.90;1.43;;;21.50;27.90;;;;;;2256287;61;20469;-60
2023/11/22 03:47:51;0.00;0.00;0.62;0.00;0.00;0.62;1.90;1.37;;;21.50;27.90;;;;;;2256229;61;20944;-61
2023/11/22 03:50:36;0.00;0.00;0.62;0.00;0.00;0.62;1.90;1.30;;;21.50;27.90;;;;;;2255940;61;20393;-66
2023/11/22 03:53:22;0.00;0.00;0.62;0.00;0.00;0.62;2.20;1.60;;;21.50;27.90;;;;;;2255874;61;20393;-60
2023/11/22 03:56:07;0.00;0.00;0.62;0.00;0.00;0.62;2.03;1.77;;;21.40;27.80;;;;;;2256037;61;20362;-55
2023/11/22 03:58:52;0.00;0.00;0.62;0.00;0.00;0.62;2.00;1.40;;;21.40;27.90;;;;;;2256311;61;20881;-59
2023/11/22 04:01:36;0.00;0.00;0.62;0.00;0.00;0.62;2.17;1.20;;;21.40;27.90;;;;;;2255685;61;20429;-57
2023/11/22 04:04:23;0.00;0.00;0.62;0.00;0.00;0.62;2.17;1.30;;;21.40;27.90;;;;;;2256216;61;20373;-60
2023/11/22 04:07:08;0.00;0.00;0.62;0.00;0.00;0.62;1.73;1.23;;;21.40;27.90;;;;;;2256057;61;20887;-59
2023/11/22 04:09:53;0.00;0.00;0.62;0.00;0.00;0.62;2.20;1.57;;;21.40;27.90;;;;;;2255979;61;20425;-60
2023/11/22 04:12:38;0.00;0.00;0.62;0.00;0.00;0.62;1.77;1.30;;;21.40;27.90;;;;;;2255787;61;21027;-60
2023/11/22 04:15:23;0.00;0.00;0.62;0.00;0.00;0.62;2.33;1.30;;;21.40;27.90;;;;;;2256247;61;20370;-59
2023/11/22 04:18:07;0.00;0.00;0.62;0.00;0.00;0.62;1.80;1.40;;;21.40;27.90;;;;;;2255450;56;20405;31
2023/11/22 04:20:53;0.00;0.00;0.62;0.00;0.00;0.62;1.80;1.23;;;21.40;27.90;;;;;;2258167;61;20390;-60
2023/11/22 04:23:38;0.00;0.00;0.62;0.00;0.00;0.62;1.90;1.20;;;21.30;27.80;;;;;;2255975;61;20914;-58
2023/11/22 04:26:24;0.00;0.00;0.62;0.00;0.00;0.62;2.13;1.37;;;21.40;27.90;;;;;;2255912;61;20417;-58
2023/11/22 04:29:09;0.00;0.00;0.62;0.00;0.00;0.62;1.67;1.27;;;21.40;27.90;;;;;;2256238;61;20385;-57
2023/11/22 04:31:53;0.00;0.00;0.62;0.00;0.00;0.62;2.00;1.53;;;21.40;27.90;;;;;;2255614;61;20446;-59
2023/11/22 04:34:38;0.00;0.00;0.62;0.00;0.00;0.62;1.67;1.10;;;21.40;27.90;;;;;;2256327;61;20374;-60
2023/11/22 04:37:26;0.00;0.00;0.62;0.00;0.00;0.62;3.00;1.60;;;21.30;27.80;;;;;;2256499;61;20463;-64
2023/11/22 04:40:13;0.00;0.00;0.62;0.00;0.00;0.62;2.00;1.40;;;21.30;27.80;;;;;;2256067;61;20389;-56
2023/11/22 04:42:58;0.00;0.00;0.62;0.00;0.00;0.62;3.57;1.20;;;21.30;27.80;;;;;;2255851;61;20413;-58
2023/11/22 04:45:43;0.00;0.00;0.62;0.00;0.00;0.62;1.73;1.13;;;21.30;27.90;;;;;;2256134;61;20362;-61
2023/11/22 04:48:27;0.00;0.00;0.62;0.00;0.00;0.62;1.93;1.17;;;21.30;27.80;;;;;;2256276;61;20382;-59
2023/11/22 04:51:12;0.00;0.00;0.62;0.00;0.00;0.62;2.10;1.20;;;21.30;27.80;;;;;;2256348;61;20362;-59
2023/11/22 04:53:58;0.00;0.00;0.62;0.00;0.00;0.62;2.60;1.37;;;21.30;27.80;;;;;;2255708;61;20412;-59
2023/11/22 04:56:43;0.00;0.00;0.62;0.00;0.00;0.62;1.70;1.20;;;21.30;27.80;;;;;;2256083;61;20370;-64
2023/11/22 04:59:27;0.00;0.00;0.62;0.00;0.00;0.62;1.80;1.10;;;21.30;27.80;;;;;;2256230;61;20879;-60
2023/11/22 05:02:12;0.00;0.00;0.62;0.00;0.00;0.62;1.70;1.20;;;21.30;27.90;;;;;;2255484;61;20394;-61
2023/11/22 05:04:57;0.00;0.00;0.62;0.00;0.00;0.62;1.60;1.20;;;21.30;27.80;;;;;;2256319;61;20827;-58
2023/11/22 05:07:41;0.00;0.00;0.62;0.00;0.00;0.62;1.57;1.10;;;21.20;27.80;;;;;;2256446;61;20761;-61
2023/11/22 05:10:27;0.00;0.00;0.62;0.00;0.00;0.62;2.17;1.33;;;21.30;27.90;;;;;;2255514;61;20405;-59
2023/11/22 05:13:11;0.00;0.00;0.62;0.00;0.00;0.62;1.77;1.10;;;21.20;27.80;;;;;;2255834;61;20783;-58
2023/11/22 05:15:56;0.00;0.00;0.62;0.00;0.00;0.62;1.60;1.10;;;21.20;27.80;;;;;;2256721;61;20470;-58
2023/11/22 05:18:40;0.00;0.00;0.62;0.00;0.00;0.62;2.00;1.40;;;21.20;27.80;;;;;;2256846;61;20389;-61
2023/11/22 05:21:26;0.00;0.00;0.62;0.00;0.00;0.62;1.60;1.17;;;21.20;27.80;;;;;;2256804;61;20485;-61
2023/11/22 05:24:10;0.00;0.00;0.62;0.00;0.00;0.62;2.33;1.37;;;21.20;27.80;;;;;;2256631;61;20362;-60
2023/11/22 05:26:56;0.00;0.00;0.62;0.00;0.00;0.62;1.60;1.10;;;21.20;27.80;;;;;;2256665;61;20365;-61
2023/11/22 05:29:42;0.00;0.00;0.62;0.00;0.00;0.62;1.90;1.30;;;21.20;27.80;;;;;;2256685;61;20382;-61
2023/11/22 05:32:27;0.00;0.00;0.62;0.00;0.00;0.62;1.90;1.30;;;21.20;27.80;;;;;;2256214;61;20405;-59
2023/11/22 05:35:12;0.00;0.00;0.62;0.00;0.00;0.62;1.60;1.17;;;21.20;27.80;;;;;;2256821;61;20409;-58
2023/11/22 05:37:57;0.00;0.00;0.62;0.00;0.00;0.62;1.60;1.07;;;21.20;27.80;;;;;;2256565;61;20385;-59
2023/11/22 05:40:43;0.00;0.00;0.62;0.00;0.00;0.62;1.80;1.10;;;21.20;27.80;;;;;;2256798;61;20712;-61
2023/11/22 05:43:29;0.00;0.00;0.62;0.00;0.00;0.62;2.03;1.30;;;21.20;27.80;;;;;;2256766;61;20362;-60
2023/11/22 05:46:13;0.00;0.00;0.62;0.00;0.00;0.62;1.50;1.00;;;21.20;27.80;;;;;;2256416;61;20473;-65
2023/11/22 05:49:00;0.00;0.00;0.62;0.00;0.00;0.62;1.83;1.13;;;21.20;27.80;;;;;;2256590;61;20389;-62
2023/11/22 05:51:45;0.00;0.00;0.62;0.00;0.00;0.62;1.53;1.03;;;21.10;27.70;;;;;;2256379;61;20361;-61
2023/11/22 05:54:30;0.00;0.00;0.62;0.00;0.00;0.62;1.73;1.30;;;21.10;27.70;;;;;;2256289;61;20888;-58
2023/11/22 05:57:15;0.00;0.00;0.62;0.00;0.00;0.62;1.70;1.30;;;21.10;27.70;;;;;;2256687;61;20365;-60
2023/11/22 06:00:01;0.00;0.00;0.62;0.00;0.00;0.62;1.77;1.33;;;21.10;28.30;;;;;;2256520;61;20382;-59
2023/11/22 06:02:48;0.00;0.00;0.62;0.00;0.00;0.62;1.90;1.30;;;21.10;27.70;;;;;;2256327;61;20409;-60
2023/11/22 06:05:33;0.00;0.00;0.62;0.00;0.00;0.62;2.00;1.10;;;21.10;27.70;;;;;;2256684;61;20458;-58
2023/11/22 06:08:18;0.00;0.00;0.62;0.00;0.00;0.62;1.83;1.33;;;21.10;27.80;;;;;;2256375;61;20389;-60
2023/11/22 06:11:03;0.00;0.00;0.62;0.00;0.00;0.62;1.70;1.10;;;21.10;27.80;;;;;;2256722;61;20869;-59
2023/11/22 06:13:48;0.00;0.00;0.62;0.00;0.00;0.62;1.50;1.07;;;21.10;27.80;;;;;;2256504;61;20416;-58
2023/11/22 06:16:34;0.00;0.00;0.62;0.00;0.00;0.62;1.60;1.00;;;21.10;27.70;;;;;;2256409;61;20370;-58
2023/11/22 06:19:18;0.00;0.00;0.62;0.00;0.00;0.62;1.83;1.30;;;21.10;27.80;;;;;;2256731;61;20405;-59
2023/11/22 06:22:03;0.00;0.00;0.62;0.00;0.00;0.62;1.60;1.00;;;21.10;27.80;;;;;;2256286;61;20413;-61
2023/11/22 06:24:48;0.00;0.00;0.62;0.00;0.00;0.62;2.03;1.10;;;21.10;27.70;;;;;;2256733;61;20466;-61
2023/11/22 06:27:33;0.00;0.00;0.62;0.00;0.00;0.62;1.93;1.20;;;21.00;27.70;;;;;;2256625;61;20381;-60
2023/11/22 06:30:18;0.00;0.00;0.62;0.00;0.00;0.62;1.70;1.20;;;21.00;27.70;;;;;;2256261;61;20799;-60
2023/11/22 06:33:04;0.00;0.00;0.62;0.00;0.00;0.62;1.57;1.00;;;21.00;27.70;;;;;;2256384;61;20365;-59
2023/11/22 06:35:49;0.00;0.00;0.62;0.00;0.00;0.62;1.90;1.20;;;21.00;27.70;;;;;;2256692;61;20393;-61
2023/11/22 06:38:34;0.00;0.00;0.62;0.00;0.00;0.62;1.80;1.10;;;21.00;27.70;;;;;;2256208;61;20938;-57
2023/11/22 06:41:21;0.00;0.00;0.62;0.00;0.00;0.62;1.70;1.07;;;21.00;27.70;;;;;;2256630;61;20899;-57
2023/11/22 06:44:05;0.00;0.00;0.62;0.00;0.00;0.62;1.50;0.97;;;21.00;27.70;;;;;;2256481;61;20951;-61
2023/11/22 06:46:50;0.00;0.00;0.62;0.00;0.00;0.62;1.67;1.10;;;21.00;27.70;;;;;;2256637;61;20945;-60
2023/11/22 06:49:36;0.00;0.00;0.62;0.00;0.00;0.62;2.00;1.40;;;21.00;27.70;;;;;;2256718;61;20444;-58
2023/11/22 06:52:20;0.00;0.00;0.62;0.00;0.00;0.62;1.80;1.13;;;21.00;27.70;;;;;;2255849;61;20370;-62
2023/11/22 06:55:09;0.00;0.00;0.62;0.00;0.00;0.62;2.40;1.30;;;21.00;27.70;;;;;;2256666;61;20373;-59
2023/11/22 06:57:54;0.00;0.00;0.62;0.00;0.00;0.62;2.03;1.43;;;21.00;27.70;;;;;;2256263;61;20362;-60
2023/11/22 07:00:39;0.00;0.00;0.62;0.00;0.00;0.62;2.50;1.70;;;21.00;27.70;;;;;;2256099;61;20420;-60
2023/11/22 07:03:24;0.00;0.00;0.62;0.00;0.00;0.62;2.30;1.47;;;21.00;27.70;;;;;;2256133;61;20862;-59
2023/11/22 07:06:10;0.00;0.00;0.62;0.00;0.00;0.62;2.00;1.57;;;21.00;27.70;;;;;;2256300;61;20454;-60
2023/11/22 07:08:54;0.00;0.00;0.62;0.00;0.00;0.62;1.97;1.30;;;21.00;27.70;;;;;;2256008;61;20391;-61
2023/11/22 07:11:39;0.00;0.00;0.62;0.00;0.00;0.62;2.83;1.47;;;21.00;27.70;;;;;;2256299;61;20405;-57
2023/11/22 07:14:24;0.00;0.00;0.62;0.00;0.00;0.62;2.90;2.00;;;21.00;27.70;;;;;;2256382;61;20362;-59
2023/11/22 07:17:10;0.00;0.00;0.62;0.00;0.00;0.62;2.50;2.00;;;20.90;27.70;;;;;;2256042;61;20440;-61
2023/11/22 07:19:55;0.00;0.00;0.62;0.00;0.00;0.62;2.60;1.73;;;20.90;27.60;;;;;;2256172;61;20471;-60
2023/11/22 07:22:43;0.00;0.00;0.62;0.00;0.00;0.62;3.93;2.63;;;20.90;27.70;;;;;;2255570;61;20973;-61
2023/11/22 07:25:29;0.00;0.00;0.62;0.00;0.00;0.62;2.60;1.90;;;20.90;27.60;;;;;;2256555;61;20408;-60
2023/11/22 07:28:14;0.00;0.00;0.62;0.00;0.00;0.62;3.00;2.10;;;20.90;27.70;;;;;;2253023;61;20806;-61
2023/11/22 07:30:58;0.00;0.00;0.62;0.00;0.00;0.62;3.03;1.97;;;20.90;27.70;;;;;;2252072;61;20808;-58
2023/11/22 07:33:43;0.00;0.00;0.62;0.00;0.00;0.62;2.70;1.90;;;20.90;27.70;;;;;;2252037;61;20455;-60
2023/11/22 07:36:28;0.00;0.00;0.62;0.00;0.00;0.62;3.47;2.30;;;20.90;27.60;;;;;;2251997;61;20895;-60
2023/11/22 07:39:14;0.00;0.00;0.62;0.00;0.00;0.62;3.10;2.37;;;20.90;27.70;;;;;;2252473;61;20386;-59
2023/11/22 07:41:58;0.00;0.00;0.62;0.00;0.00;0.62;4.97;2.20;;;20.90;27.70;;;;;;2252082;61;20440;-60
2023/11/22 07:44:43;0.00;0.00;0.62;0.00;0.00;0.62;2.90;2.23;;;20.90;28.20;;;;;;2252026;61;20367;-61
2023/11/22 07:47:28;0.00;0.00;0.62;0.00;0.00;0.62;2.30;1.67;;;20.90;27.70;;;;;;2252362;61;20449;-58
2023/11/22 07:50:13;0.00;0.00;0.62;0.00;0.00;0.62;2.63;2.13;;;20.90;27.70;;;;;;2252266;61;20433;-65
2023/11/22 07:52:57;0.00;0.00;0.62;0.00;0.00;0.62;3.47;2.40;;;20.90;27.70;;;;;;2251135;61;20394;-61
2023/11/22 07:55:43;0.00;0.00;0.62;0.00;0.00;0.62;3.20;2.30;;;20.90;27.70;;;;;;2252393;61;20446;-61
2023/11/22 07:58:28;0.00;0.00;0.62;0.00;0.00;0.62;3.17;1.93;;;20.90;27.70;;;;;;2251958;61;20452;-59
2023/11/22 08:01:13;0.00;0.00;0.62;0.00;0.00;0.62;2.80;1.63;;;20.90;27.70;;;;;;2252331;61;20382;-60
2023/11/22 08:03:58;0.00;0.00;0.62;0.00;0.00;0.62;3.40;1.97;;;20.80;27.60;;;;;;2252288;61;20525;-60
2023/11/22 08:06:42;0.00;0.00;0.62;0.00;0.00;0.62;2.77;2.20;;;20.80;27.60;;;;;;2251969;61;20368;-61
2023/11/22 08:09:32;0.00;0.00;0.62;0.00;0.00;0.62;3.70;2.37;;;20.80;27.60;;;;;;2252315;61;20378;-59
2023/11/22 08:12:19;0.00;0.00;0.62;0.00;0.00;0.62;2.73;1.73;;;20.80;27.60;;;;;;2254191;61;20928;-61
2023/11/22 08:15:05;0.00;0.00;0.62;0.00;0.00;0.62;2.70;1.77;;;20.80;27.60;;;;;;2252038;61;20393;-60
2023/11/22 08:17:49;0.00;0.00;0.62;0.00;0.00;0.62;2.77;2.23;;;20.80;27.60;;;;;;2252294;61;20371;-60
2023/11/22 08:20:34;0.00;0.00;0.62;0.00;0.00;0.62;2.70;1.80;;;20.80;27.60;;;;;;2252169;61;20366;-59
2023/11/22 08:23:18;0.00;0.00;0.62;0.00;0.00;0.62;2.60;1.77;;;20.80;27.60;;;;;;2251851;61;20402;-60
2023/11/22 08:26:04;0.00;0.00;0.62;0.00;0.00;0.62;3.00;1.97;;;20.80;27.60;;;;;;2252124;61;20393;-61
2023/11/22 08:28:50;0.00;0.00;0.62;0.00;0.00;0.62;2.37;1.57;;;20.80;28.10;;;;;;2251920;61;20565;-60
2023/11/22 08:31:36;0.00;0.00;0.62;0.00;0.00;0.62;2.30;1.60;;;20.80;27.60;;;;;;2252030;61;20379;-60
2023/11/22 08:34:20;0.00;0.00;0.62;0.00;0.00;0.62;2.30;1.67;;;20.80;27.60;;;;;;2252187;61;20398;-59
2023/11/22 08:37:06;0.00;0.00;0.62;0.00;0.00;0.62;2.77;1.83;;;20.80;27.60;;;;;;2251906;61;20366;-62
2023/11/22 08:39:51;0.00;0.00;0.62;0.00;0.00;0.62;2.70;1.67;;;20.80;27.60;;;;;;2252253;61;20422;-60
2023/11/22 08:42:36;0.00;0.00;0.62;0.00;0.00;0.62;2.43;1.80;;;20.80;27.60;;;;;;2251596;61;20690;-64
2023/11/22 08:45:22;0.00;0.00;0.62;0.00;0.00;0.62;3.40;2.10;;;20.80;27.60;;;;;;2252298;61;20378;-60
2023/11/22 08:48:06;0.00;0.00;0.62;0.00;0.00;0.62;2.67;1.60;;;20.80;27.60;;;;;;2252014;61;20904;-55
2023/11/22 08:50:53;0.00;0.00;0.62;0.00;0.00;0.62;4.37;1.70;;;20.80;27.60;;;;;;2252539;61;20409;-58
2023/11/22 08:53:38;0.00;0.00;0.62;0.00;0.00;0.62;2.53;1.77;;;20.80;27.70;;;;;;2252359;61;20506;-59
2023/11/22 08:56:24;0.00;0.00;0.62;0.00;0.00;0.62;3.00;2.13;;;20.80;27.60;;;;;;2252863;61;20784;-63
2023/11/22 08:59:09;0.00;0.00;0.62;0.00;0.00;0.62;3.17;1.97;;;20.80;27.60;;;;;;2252682;61;20479;-59
2023/11/22 09:01:55;0.00;0.00;0.62;0.00;0.00;0.62;2.70;1.87;;;20.80;27.60;;;;;;2252448;61;20616;-58
2023/11/22 09:04:41;0.00;0.00;0.62;0.00;0.00;0.62;2.60;1.90;;;20.80;27.70;;;;;;2252817;61;20410;-58
2023/11/22 09:07:28;0.00;0.00;0.62;0.00;0.00;0.62;3.07;2.60;;;20.80;27.70;;;;;;2252799;61;20413;-60
2023/11/22 09:10:14;0.00;0.00;0.62;0.00;0.00;0.62;3.67;2.53;;;20.80;27.60;;;;;;2252682;61;20391;-61
2023/11/22 09:13:01;0.00;0.00;0.62;0.00;0.00;0.62;3.30;2.50;;;20.80;27.60;;;;;;2252132;61;20382;-60
2023/11/22 09:15:46;0.00;0.00;0.62;0.00;0.00;0.62;3.40;2.70;;;20.80;27.60;;;;;;2252860;61;20367;-57
2023/11/22 09:18:32;0.00;0.00;0.62;0.00;0.00;0.62;4.07;3.03;;;20.80;27.60;;;;;;2252734;61;20413;-58
2023/11/22 09:21:17;0.00;0.00;0.62;0.00;0.00;0.62;4.00;3.10;;;20.80;27.60;;;;;;2252469;61;20390;-61
2023/11/22 09:24:05;0.00;0.00;0.62;0.00;0.00;0.62;4.53;3.20;;;20.80;27.70;;;;;;2255198;61;20425;-57
2023/11/22 09:26:50;0.00;0.00;0.62;0.00;0.00;0.62;4.20;3.23;;;20.80;27.60;;;;;;2252376;61;20375;-58
2023/11/22 09:29:35;0.00;0.00;0.62;0.00;0.00;0.62;3.80;3.00;;;20.80;27.60;;;;;;2252720;61;20411;-57
2023/11/22 09:32:19;0.00;0.00;0.62;0.00;0.00;0.62;5.40;3.93;;;20.80;27.60;;;;;;2252357;61;20446;-57
2023/11/22 09:35:08;0.00;0.00;0.62;0.00;0.00;0.62;5.00;3.87;;;20.80;27.60;;;;;;2252016;61;20450;-60
2023/11/22 09:37:52;0.00;0.00;0.62;0.00;0.00;0.62;4.97;3.80;;;20.80;27.60;;;;;;2252556;61;20367;-61
2023/11/22 09:40:40;0.00;0.00;0.62;0.00;0.00;0.62;4.30;3.63;;;20.80;27.60;;;;;;2255121;61;20835;-58
2023/11/22 09:43:26;0.00;0.00;0.62;0.00;0.00;0.62;5.03;3.90;;;20.80;27.60;;;;;;2251596;61;20804;-60
2023/11/22 09:46:12;0.00;0.00;0.62;0.00;0.00;0.62;6.37;3.77;;;20.80;27.50;;;;;;2255174;61;20957;-60
2023/11/22 09:48:57;0.00;0.00;0.62;0.00;0.00;0.62;5.40;3.73;;;20.80;27.50;;;;;;2252803;61;20390;-56
2023/11/22 09:51:44;0.00;0.00;0.62;0.00;0.00;0.62;4.60;3.70;;;20.80;27.50;;;;;;2252167;61;20367;-60
2023/11/22 09:54:30;0.00;0.00;0.62;0.00;0.00;0.62;4.50;3.17;;;20.80;27.50;;;;;;2252692;61;20839;-60
2023/11/22 09:57:17;0.00;0.00;0.62;0.00;0.00;0.62;6.00;3.87;;;20.80;27.50;;;;;;2252248;61;20406;-61
2023/11/22 10:00:02;0.00;0.00;0.62;0.00;0.00;0.62;6.30;3.60;;;20.80;27.50;;;;;;2252553;61;20406;-57
2023/11/22 10:02:53;0.00;0.00;0.62;0.00;0.00;0.62;4.33;3.13;;;20.80;27.40;;;;;;2252323;61;20397;-60
2023/11/22 10:05:39;0.00;0.00;0.62;0.00;0.00;0.62;4.20;3.20;;;20.80;27.50;;;;;;2252406;61;20366;-61
2023/11/22 10:08:27;0.00;0.00;0.62;0.00;0.00;0.62;5.47;3.97;;;20.80;27.50;;;;;;2252554;61;20386;-60
2023/11/22 10:11:14;0.00;0.00;0.62;0.00;0.00;0.62;4.37;3.40;;;20.90;27.50;;;;;;2252637;61;20372;-61
2023/11/22 10:13:59;0.00;0.00;0.62;0.00;0.00;0.62;4.93;3.60;;;20.80;27.50;;;;;;2252441;61;20394;-60
2023/11/22 10:16:59;0.00;0.00;0.62;0.00;0.00;0.62;4.07;3.40;;;20.80;27.50;;;;;;2252572;61;20362;-59
2023/11/22 10:19:43;0.00;0.00;0.62;0.00;0.00;0.62;6.33;3.40;;;20.80;27.50;;;;;;2252038;61;20382;-58
2023/11/22 10:22:28;0.00;0.00;0.62;0.00;0.00;0.62;4.73;3.60;;;20.80;27.50;;;;;;2258794;61;20397;-59
2023/11/22 10:25:18;0.00;0.00;0.62;0.00;0.00;0.62;5.00;3.80;;;20.90;27.50;;;;;;2259136;61;20412;-59
2023/11/22 10:28:07;0.00;0.00;0.62;0.00;0.00;0.62;4.80;3.50;;;20.90;28.10;;;;;;2258969;61;20374;-59
2023/11/22 10:30:52;0.00;0.00;0.62;0.00;0.00;0.62;5.40;3.60;;;20.90;27.50;;;;;;2259388;61;20362;-61
2023/11/22 10:33:41;0.00;0.00;0.62;0.00;0.00;0.62;4.07;3.27;;;20.90;27.50;;;;;;2258881;61;20382;-58
2023/11/22 10:36:27;0.00;0.00;0.62;0.00;0.00;0.62;4.00;2.77;;;20.90;27.50;;;;;;2259371;61;20401;-56
2023/11/22 10:39:16;0.00;0.00;0.62;0.00;0.00;0.62;4.43;3.37;;;20.90;27.50;;;;;;2259128;61;20433;-60
2023/11/22 10:42:05;0.00;0.00;0.62;0.00;0.00;0.62;5.13;3.67;;;20.90;27.60;;;;;;2258501;61;20394;-59
2023/11/22 10:44:51;0.00;0.00;0.62;0.00;0.00;0.62;4.80;3.70;;;20.90;27.60;;;;;;2261095;61;20366;-58
2023/11/22 10:47:42;0.00;0.00;0.62;0.00;0.00;0.62;4.87;3.53;;;20.90;27.60;;;;;;2259045;61;20366;-59
2023/11/22 10:50:28;0.00;0.00;0.62;0.00;0.00;0.62;5.10;4.37;;;20.90;27.60;;;;;;2258893;61;20413;-63
2023/11/22 10:53:20;0.00;0.00;0.62;0.00;0.00;0.62;7.20;5.70;;;20.90;27.60;;;;;;2258745;61;20358;-59